Plymouth, MA

4:16 AM EDT on September 03, 2015 (GMT -0400)
Clark Estates | | Change Station
CLOSE
Current Station
Personal Weather Station
Location: Plymouth, MA
Elevation: 177 ft
Nearby Weather Stations

Elev 177 ft 41.87 °N, 70.59 °W | Updated 10 minutes ago

Clear
Clear
67.3 °F
Feels Like 67.3 °F
N
4.2
Wind Variable Wind from WSW

Today
High -- | Low -- °F
--% Chance of Precip.
Yesterday
High -- | Low -- °F
Precip. -- in
6:10 AM 7:13 PM
Waning Gibbous, 72% visible
Pressure 29.85 in
Visibility 8.0 miles
Clouds Clear
Dew Point 66 °F
Humidity 97%
Rainfall 0.00 in
Snow Depth Not available.
UV 0 out of 12
Pollen 10.40 out of 12
Air Quality Not available.
Flu Activity Not available.
METAR KPYM 030752Z AUTO 00000KT 8SM CLR 18/17 A2985 RMK AO2 SLP107 T01780172
Pressure 29.85 in
Visibility 8.0 miles
Clouds Clear
Dew Point 66 °F
Humidity 97%
Rainfall 0.00 in
Snow Depth Not available.
UV 0 out of 12
Pollen 10.40 out of 12
Air Quality Not available.
Flu Activity Not available.
METAR KPYM 030752Z AUTO 00000KT 8SM CLR 18/17 A2985 RMK AO2 SLP107 T01780172

10-Day Weather Forecast

×

Almanac

Astronomy

Sep. 03, 2015 Rise Set
Actual Time
Civil Twilight
Nautical Twilight
Astronomical Twilight
Moon
Length of Visible Light
Length of Day
Tomorrow will be .
, % of the Moon is Illuminated

Today's Extremes

State Highs State Lows

Community

WunderPhotos

Upload Photos

1,851,919 photos uploaded!

WunderBlogs® & News

Nearby

Air Quality

  Air Quality AQ Index Pollutant
Not available.

Snow Depth

Station Depth Elevation

Earthquake Activity

City Distance Mag. Time & Date
Minimum magnitude displayed is 2.5.

Coastal Water Temperatures

Place Temperature

Stations

Nearby Weather Stations

Station Location Temp. Windchill Dew Point Humidity Wind Precip. Elev Updated Type